Flight Track Log - Related Links

Times and Time Zones

All times are in EDT time to prevent confusion due to time zone crossing. See the N606FT flight status page for this flight to view local times or setup timezone preferences in your user account.

Time Position Orientation Groundspeed Altitude Reporting Facility
EDT Latitude Longitude Course Direction KTS MPH feet Rate Location/Type
Sat 08:28:21 AM 28.1167 -80.7833 180° South 81 93 3,500  Level Orlando TRACON
Sat 08:29:21 AM 28.0833 -80.7833 180° South 90 104 3,500  Level Orlando TRACON
Sat 08:30:15 AM 28.0667 -80.7833 180° South 85 98 3,500  Level Orlando TRACON
Sat 08:31:09 AM 28.0500 -80.7833 180° South 85 98 3,500  Level Orlando TRACON
Sat 08:32:15 AM 28.0167 -80.7833 180° South 82 94 3,500  Level Orlando TRACON
Sat 08:34:06 AM 27.9781 -80.7736 167° South 88 101 3,500  Level Miami Center
Sat 08:35:06 AM 27.9592 -80.7731 179° South 88 101 3,500  Level Miami Center
Sat 08:36:06 AM 27.9322 -80.7722 178° South 88 101 3,500  Level Miami Center
Sat 08:37:06 AM 27.9114 -80.7692 173° South 88 101 3,500  Level Miami Center
Sat 08:38:06 AM 27.8803 -80.7656 174° South 83 96 3,500  Level Miami Center
Sat 08:39:06 AM 27.8575 -80.7603 168° South 83 96 3,500  Level Miami Center
Sat 08:40:06 AM 27.8367 -80.7572 173° South 83 96 3,500 50 Level Miami Center
Sat 08:41:06 AM 27.8136 -80.7539 173° South 88 101 3,600  Climbing Miami Center
Sat 08:42:06 AM 27.7867 -80.7483 170° South 83 96 3,500 -50 Descending Miami Center
Sat 08:43:06 AM 27.7619 -80.7406 164° South 88 101 3,500  Level Miami Center
Sat 08:44:06 AM 27.7411 -80.7350 167° South 88 101 3,500  Level Miami Center
Sat 08:45:06 AM 27.7161 -80.7342 178° South 88 101 3,500 -50 Level Miami Center
Sat 08:46:06 AM 27.6892 -80.7333 178° South 88 101 3,400  Descending Miami Center
Sat 08:47:06 AM 27.6661 -80.7303 173° South 88 101 3,500 50 Climbing Miami Center
Sat 08:48:06 AM 27.6389 -80.7317 183° South 88 101 3,500  Level Miami Center
Sat 08:49:06 AM 27.6181 -80.7308 178° South 88 101 3,500  Level Miami Center
Sat 08:50:06 AM 27.5931 -80.7325 183° South 88 101 3,500  Level Miami Center
Sat 08:51:06 AM 27.5658 -80.7386 191° South 88 101 3,500 -150 Level Miami Center
Sat 08:52:06 AM 27.5406 -80.7469 196° South 88 101 3,200 -500 Descending Miami Center
Sat 08:53:06 AM 27.5175 -80.7486 184° South 88 101 2,500 -400 Descending Miami Center
Sat 08:54:06 AM 27.4964 -80.7550 195° South 88 101 2,400  Descending Miami Center
Sat 08:55:06 AM 27.4714 -80.7542 178° South 88 101 2,500  Climbing Miami Center
Sat 08:56:06 AM 27.4442 -80.7556 183° South 88 101 2,400 -50 Descending Miami Center
Sat 08:57:06 AM 27.4211 -80.7594 189° South 88 101 2,400 -12 Level Miami Center
Sat 10:05:06 AM 26.9722 -80.6067 163° South 115 132 1,600 -10 Descending Miami Center
Sat 10:06:06 AM 27.0014 -80.6078 358° North 102 117 1,700  Climbing Miami Center
Sat 10:07:06 AM 27.0306 -80.6064 North 102 117 1,600  Descending Miami Center
Sat 10:08:06 AM 27.0597 -80.6097 354° North 102 117 1,700 100 Climbing Miami Center
Sat 10:09:06 AM 27.0844 -80.6175 344° North 102 117 1,800 50 Climbing Miami Center
Sat 10:10:06 AM 27.1136 -80.6231 350° North 102 117 1,800 -50 Level Miami Center
Sat 10:11:06 AM 27.1447 -80.6333 344° North 102 117 1,700 -150 Descending Miami Center
Sat 10:12:06 AM 27.1694 -80.6481 332° Northwest 107 123 1,500 -200 Descending Miami Center
Sat 10:13:06 AM 27.1917 -80.6700 319° Northwest 107 123 1,300 -150 Descending Miami Center
Sat 10:14:06 AM 27.2144 -80.6822 334° Northwest 107 123 1,200 -50 Descending Miami Center
Sat 10:15:06 AM 27.2456 -80.6903 347° North 95 109 1,200 100 Level Miami Center
Sat 10:16:06 AM 27.2725 -80.6983 345° North 95 109 1,400 100 Climbing Miami Center
Sat 10:17:06 AM 27.2994 -80.7086 341° North 100 115 1,400 50 Level Miami Center
Sat 10:18:06 AM 27.3264 -80.7069 North 105 121 1,500 -50 Climbing Miami Center
Sat 10:19:06 AM 27.3600 -80.7083 358° North 105 121 1,300 -100 Descending Miami Center
Sat 10:20:06 AM 27.3892 -80.7092 359° North 100 115 1,300 100 Level Miami Center
Sat 10:21:06 AM 27.4183 -80.7078 North 100 115 1,500 300 Climbing Miami Center
Sat 10:22:06 AM 27.4433 -80.7064 North 100 115 1,900 450 Climbing Miami Center
Sat 10:23:06 AM 27.4664 -80.7047 North 100 115 2,400 650 Climbing Miami Center
Sat 10:24:06 AM 27.4958 -80.7011 North 95 109 3,200 600 Climbing Miami Center
Sat 10:25:06 AM 27.5228 -80.7042 354° North 95 109 3,600 200 Climbing Miami Center
Sat 10:26:06 AM 27.5542 -80.7031 North 101 116 3,600  Level Miami Center
Sat 10:27:06 AM 27.5814 -80.7039 358° North 101 116 3,600  Level Miami Center
Sat 10:28:06 AM 27.6125 -80.7072 355° North 101 116 3,600  Level Miami Center
Sat 10:29:06 AM 27.6458 -80.7108 355° North 101 116 3,600  Level Miami Center
Sat 10:30:06 AM 27.6750 -80.7164 350° North 101 116 3,600  Level Miami Center
Sat 10:31:58 AM 27.7333 -80.7333 346° North 105 121 3,600 -35 Level Orlando TRACON
Sat 10:32:58 AM 27.7500 -80.7333 360° North 102 117 3,500 -48 Descending Orlando TRACON
Sat 10:34:04 AM 27.7833 -80.7333 360° North 105 121 3,500 -45 Level Orlando TRACON
Sat 10:35:10 AM 27.8167 -80.7333 360° North 109 125 3,400  Descending Orlando TRACON
Sat 10:35:58 AM 27.8500 -80.7333 360° North 105 121 3,500 110 Climbing Orlando TRACON
Sat 10:36:59 AM 27.8667 -80.7333 360° North 105 121 3,600 50 Climbing Orlando TRACON
Sat 10:37:59 AM 27.9000 -80.7333 360° North 108 124 3,600 -50 Level Orlando TRACON
Sat 10:38:59 AM 27.9333 -80.7333 360° North 111 128 3,500 -50 Descending Orlando TRACON
Sat 10:39:59 AM 27.9667 -80.7500 336° Northwest 106 122 3,500  Level Orlando TRACON
Sat 10:40:59 AM 27.9833 -80.7500 360° North 101 116 3,500 50 Level Orlando TRACON
Sat 10:42:00 AM 28.0167 -80.7500 360° North 108 124 3,600  Climbing Orlando TRACON
Sat 10:43:00 AM 28.0500 -80.7500 360° North 111 128 3,500 -50 Descending Orlando TRACON
Sat 10:44:00 AM 28.0833 -80.7500 360° North 109 125 3,500  Level Orlando TRACON

Login

Don't have an account? Register now (free) for customized features, flight alerts, and more!